Lesknedalar — FHKS — position and weather

sailwx.info

Track history (hours):
 
Tides and Currents Weather Stations Pressure Air Temp Water Temp Dewpoint Dewpoint Depression Visibility Wind Speed Wind Dir Waves Ship Positions

Lesknedalar

Last reported at 2017-Oct-17 19:59 UTC. Time now 2017-Oct-17 20:13 UTC.
Position N 47°52' W 004°32'.

Length 16 m.

Type: Fishing. MMSI: 228160000.

Date/timePositionNaut miles runAvg speedWind from/ knotsBaromVisibWave heightAir tempDewpointWater temp
2017-Oct-17 19:59N 47°52' W 004°32'5 9.8
2017-Oct-17 19:30N 47°49' W 004°25'2 3.6
2017-Oct-17 19:01N 47°49' W 004°23'  
2017-Oct-13 05:43N 47°49' W 004°23'7 8.1
2017-Oct-13 04:53N 47°53' W 004°31'1 1.1
2017-Oct-13 04:10N 47°54' W 004°31'1 3.3
2017-Oct-13 03:59N 47°54' W 004°31'0 0.2
2017-Oct-13 03:27N 47°54' W 004°31'2 4.8
2017-Oct-13 02:58N 47°56' W 004°33'3 5.0
2017-Oct-13 02:28N 47°59' W 004°34'1 1.1
2017-Oct-13 01:58N 47°58' W 004°33'1 2.9
2017-Oct-13 01:27N 47°58' W 004°31'4 8.6
2017-Oct-13 00:58N 47°55' W 004°27'2 3.3
2017-Oct-13 00:24N 47°54' W 004°24'1 2.0
2017-Oct-12 23:59N 47°55' W 004°25'1 1.2
2017-Oct-12 23:25N 47°55' W 004°26'1 1.3
2017-Oct-12 22:48N 47°55' W 004°27'0 0.2
2017-Oct-12 22:27N 47°55' W 004°27'2 4.6
2017-Oct-12 21:58N 47°53' W 004°25'5 7.8
2017-Oct-12 21:18N 47°49' W 004°23'0 0.0
2017-Oct-12 05:58N 47°49' W 004°23'3 1.6
2017-Oct-12 04:02N 47°52' W 004°25'1 8.6
2017-Oct-12 03:58N 47°52' W 004°26'5 3.2
2017-Oct-12 02:31N 47°57' W 004°28'0 7.8
2017-Oct-12 02:27N 47°56' W 004°27'2 4.3
2017-Oct-12 01:53N 47°57' W 004°30'7 7.9
2017-Oct-12 00:58N 47°51' W 004°26'8 0.3
2017-Oct-10 23:58N 47°58' W 004°31'2 2.7
2017-Oct-10 23:14N 47°58' W 004°34'2 7.3
2017-Oct-10 22:57N 47°59' W 004°36'2 5.1
2017-Oct-10 22:30N 47°58' W 004°34'4 7.8
2017-Oct-10 21:59N 47°56' W 004°28'8 8.7
2017-Oct-10 21:03N 47°49' W 004°24'1 3.6
2017-Oct-10 20:52N 47°49' W 004°23'0 0.0
2017-Oct-10 08:57N 47°49' W 004°23'0 0.0
2017-Oct-10 06:43N 47°49' W 004°23'6 1.5
2017-Oct-10 02:53N 47°45' W 004°17'0 0.4
2017-Oct-10 01:53N 47°45' W 004°17'1 1.4
2017-Oct-10 00:53N 47°45' W 004°16'2 3.1
2017-Oct-10 00:24N 47°43' W 004°15'3 6.9
2017-Oct-10 00:00N 47°45' W 004°13'2 1.5
2017-Oct-09 22:58N 47°45' W 004°10'0 0.5
2017-Oct-09 21:58N 47°45' W 004°11'8 7.5
2017-Oct-09 20:58N 47°46' W 004°22'2 0.2
2017-Oct-09 06:59N 47°49' W 004°23'8 6.7
2017-Oct-09 05:48N 47°55' W 004°29'0 0.4
2017-Oct-09 04:48N 47°56' W 004°29'0 0.8
2017-Oct-09 04:18N 47°56' W 004°29'0 0.9
2017-Oct-09 03:54N 47°56' W 004°28'0 0.5
2017-Oct-09 02:59N 47°56' W 004°28'0 0.4
2017-Oct-09 02:26N 47°56' W 004°28'0 0.1
2017-Oct-09 01:48N 47°56' W 004°28'4 4.5
2017-Oct-09 00:58N 47°54' W 004°24'3 2.7
2017-Oct-08 23:59N 47°52' W 004°23'2 2.9
2017-Oct-08 23:15N 47°53' W 004°24'1 1.9
2017-Oct-08 22:59N 47°53' W 004°24'1 1.2
2017-Oct-08 21:53N 47°52' W 004°23'2 2.1
2017-Oct-08 20:58N 47°50' W 004°23'  
Track history (hours):
 
Tides and Currents Weather Stations Pressure Air Temp Water Temp Dewpoint Dewpoint Depression Visibility Wind Speed Wind Dir Waves Ship Positions

Lesknedalar

Last reported at 2017-Oct-17 19:59 UTC. Time now 2017-Oct-17 20:13 UTC.
Position N 47°52' W 004°32'.

Length 16 m.

Type: Fishing. MMSI: 228160000.

Date/timePositionNaut miles runAvg speedWind from/ knotsBaromVisibWave heightAir tempDewpointWater temp
2017-Oct-17 19:59N 47°52' W 004°32'5 9.8
2017-Oct-17 19:30N 47°49' W 004°25'2 3.6
2017-Oct-17 19:01N 47°49' W 004°23'  
2017-Oct-13 05:43N 47°49' W 004°23'7 8.1
2017-Oct-13 04:53N 47°53' W 004°31'1 1.1
2017-Oct-13 04:10N 47°54' W 004°31'1 3.3
2017-Oct-13 03:59N 47°54' W 004°31'0 0.2
2017-Oct-13 03:27N 47°54' W 004°31'2 4.8
2017-Oct-13 02:58N 47°56' W 004°33'3 5.0
2017-Oct-13 02:28N 47°59' W 004°34'1 1.1
2017-Oct-13 01:58N 47°58' W 004°33'1 2.9
2017-Oct-13 01:27N 47°58' W 004°31'4 8.6
2017-Oct-13 00:58N 47°55' W 004°27'2 3.3
2017-Oct-13 00:24N 47°54' W 004°24'1 2.0
2017-Oct-12 23:59N 47°55' W 004°25'1 1.2
2017-Oct-12 23:25N 47°55' W 004°26'1 1.3
2017-Oct-12 22:48N 47°55' W 004°27'0 0.2
2017-Oct-12 22:27N 47°55' W 004°27'2 4.6
2017-Oct-12 21:58N 47°53' W 004°25'5 7.8
2017-Oct-12 21:18N 47°49' W 004°23'0 0.0
2017-Oct-12 05:58N 47°49' W 004°23'3 1.6
2017-Oct-12 04:02N 47°52' W 004°25'1 8.6
2017-Oct-12 03:58N 47°52' W 004°26'5 3.2
2017-Oct-12 02:31N 47°57' W 004°28'0 7.8
2017-Oct-12 02:27N 47°56' W 004°27'2 4.3
2017-Oct-12 01:53N 47°57' W 004°30'7 7.9
2017-Oct-12 00:58N 47°51' W 004°26'8 0.3
2017-Oct-10 23:58N 47°58' W 004°31'2 2.7
2017-Oct-10 23:14N 47°58' W 004°34'2 7.3
2017-Oct-10 22:57N 47°59' W 004°36'2 5.1
2017-Oct-10 22:30N 47°58' W 004°34'4 7.8
2017-Oct-10 21:59N 47°56' W 004°28'8 8.7
2017-Oct-10 21:03N 47°49' W 004°24'1 3.6
2017-Oct-10 20:52N 47°49' W 004°23'0 0.0
2017-Oct-10 08:57N 47°49' W 004°23'0 0.0
2017-Oct-10 06:43N 47°49' W 004°23'6 1.5
2017-Oct-10 02:53N 47°45' W 004°17'0 0.4
2017-Oct-10 01:53N 47°45' W 004°17'1 1.4
2017-Oct-10 00:53N 47°45' W 004°16'2 3.1
2017-Oct-10 00:24N 47°43' W 004°15'3 6.9
2017-Oct-10 00:00N 47°45' W 004°13'2 1.5
2017-Oct-09 22:58N 47°45' W 004°10'0 0.5
2017-Oct-09 21:58N 47°45' W 004°11'8 7.5
2017-Oct-09 20:58N 47°46' W 004°22'2 0.2
2017-Oct-09 06:59N 47°49' W 004°23'8 6.7
2017-Oct-09 05:48N 47°55' W 004°29'0 0.4
2017-Oct-09 04:48N 47°56' W 004°29'0 0.8
2017-Oct-09 04:18N 47°56' W 004°29'0 0.9
2017-Oct-09 03:54N 47°56' W 004°28'0 0.5
2017-Oct-09 02:59N 47°56' W 004°28'0 0.4
2017-Oct-09 02:26N 47°56' W 004°28'0 0.1
2017-Oct-09 01:48N 47°56' W 004°28'4 4.5
2017-Oct-09 00:58N 47°54' W 004°24'3 2.7
2017-Oct-08 23:59N 47°52' W 004°23'2 2.9
2017-Oct-08 23:15N 47°53' W 004°24'1 1.9
2017-Oct-08 22:59N 47°53' W 004°24'1 1.2
2017-Oct-08 21:53N 47°52' W 004°23'2 2.1
2017-Oct-08 20:58N 47°50' W 004°23'  

Dump ship's entire track history